Time;durP1;ratioP1;P1;durP2;ratioP2;P2;SDS_P1;SDS_P2;PMS_P1;PMS_P2;Temp;Humidity;BMP_temperature;BMP_pressure;BME280_temperature;BME280_humidity;BME280_pressure;Samples;Min_cycle;Max_cycle;Signal;HPM_P1;HPM_P2
2022/09/01 00:00:17;;;;;;;8.57;5.30;;;;;;;16.06;69.14;101385.80;4924949;58;1141101;-67
2022/09/01 00:05:24;;;;;;;14.60;5.00;;;;;;;15.93;69.29;101387.84;5025406;58;1139048;-70
2022/09/01 00:10:30;;;;;;;6.83;3.87;;;;;;;15.71;69.20;101388.01;5065296;58;1141095;-69
2022/09/01 00:15:36;;;;;;;6.33;3.67;;;;;;;15.58;69.96;101390.03;5081143;57;1138909;-74
2022/09/01 00:20:42;;;;;;;5.93;4.00;;;;;;;15.44;70.66;101385.80;5141209;57;1139003;-68
2022/09/01 00:25:48;;;;;;;8.60;4.67;;;;;;;15.51;71.11;101390.14;5140974;57;1139000;-66
2022/09/01 00:30:54;;;;;;;7.20;3.07;;;;;;;15.58;71.22;101382.87;5048989;57;1139266;-69
2022/09/01 00:36:00;;;;;;;7.63;3.00;;;;;;;15.66;71.19;101381.72;5162365;56;1138949;-71
2022/09/01 00:41:07;;;;;;;9.13;2.30;;;;;;;15.69;71.09;101377.95;5138733;56;1139220;-67
2022/09/01 00:46:20;;;;;;;6.87;3.23;;;;;;;15.52;70.50;101378.50;5078315;58;1139058;-70
2022/09/01 00:51:28;;;;;;;6.67;3.30;;;;;;;15.22;70.57;101377.45;5099080;57;1139035;-66
2022/09/01 00:56:37;;;;;;;11.87;3.00;;;;;;;15.14;71.90;101374.55;5142101;57;1139049;-71
2022/09/01 01:01:44;;;;;;;4.73;2.60;;;;;;;15.24;72.64;101371.98;5178994;56;1141097;-71
2022/09/01 01:07:00;;;;;;;9.23;2.63;;;;;;;15.27;72.37;101376.58;5228342;56;1139317;-65
2022/09/01 01:12:04;;;;;;;6.13;2.83;;;;;;;15.29;72.34;101377.27;5224091;56;1138937;-70
2022/09/01 01:17:10;;;;;;;10.80;3.80;;;;;;;15.32;72.45;101380.17;5228151;56;1139031;-72
2022/09/01 01:27:45;;;;;;;15.12;4.26;;;;;;;14.72;71.43;101386.44;5227954;56;1139058;-71
2022/09/01 01:32:54;;;;;;;23.40;6.27;;;;;;;14.40;72.12;101387.70;5194479;56;1141068;-71
2022/09/01 01:38:01;;;;;;;15.50;5.47;;;;;;;14.21;72.96;101383.91;5165744;56;1141100;-68
2022/09/01 01:43:07;;;;;;;9.73;4.57;;;;;;;14.34;74.66;101338.09;5075159;58;1141089;-67
2022/09/01 01:48:14;;;;;;;12.70;4.30;;;;;;;14.56;75.01;101374.48;5043258;58;1139068;-70
2022/09/01 01:53:22;;;;;;;6.10;3.03;;;;;;;14.61;74.25;101378.97;5043413;58;1138969;-65
2022/09/01 01:58:31;;;;;;;7.87;2.70;;;;;;;14.57;74.18;101377.03;5043273;58;1136783;-69
2022/09/01 02:03:38;;;;;;;6.63;3.10;;;;;;;14.51;73.69;101370.05;4999371;58;1137157;-67
2022/09/01 02:08:44;;;;;;;9.67;3.13;;;;;;;14.39;73.31;101376.66;5063082;57;1136935;-69
2022/09/01 02:13:55;;;;;;;5.80;3.40;;;;;;;14.06;73.43;101368.68;5167612;56;1136954;-68
2022/09/01 02:19:00;;;;;;;8.27;2.97;;;;;;;14.09;74.82;101367.12;5085765;56;1137040;-66
2022/09/01 02:24:07;;;;;;;5.53;2.60;;;;;;;14.21;74.92;101373.27;5051394;57;1137004;-70
2022/09/01 02:29:17;;;;;;;4.63;2.30;;;;;;;14.05;74.15;101369.16;4909793;59;1137155;-68
2022/09/01 02:34:27;;;;;;;7.63;2.17;;;;;;;14.01;75.11;101366.89;5022293;57;1136923;-72
2022/09/01 02:39:33;;;;;;;8.50;2.07;;;;;;;13.92;74.50;101367.59;4984337;58;1136944;-67
2022/09/01 02:44:39;;;;;;;3.83;2.30;;;;;;;13.56;74.55;101370.81;4961791;59;1137000;-71
2022/09/01 02:49:46;;;;;;;12.93;2.70;;;;;;;13.53;76.12;101366.21;4968942;57;1137022;-70
2022/09/01 02:54:54;;;;;;;4.90;2.43;;;;;;;13.58;76.14;101370.22;4987839;57;1139017;-67
2022/09/01 02:59:59;;;;;;;16.83;2.40;;;;;;;13.71;76.39;101369.64;4998900;58;1136916;-66
2022/09/01 03:05:06;;;;;;;18.27;2.60;;;;;;;13.82;76.78;101374.59;4962062;59;1136904;-73
2022/09/01 03:10:11;;;;;;;10.43;2.70;;;;;;;13.88;76.78;101364.83;5057662;58;1136954;-68
2022/09/01 03:15:18;;;;;;;5.43;1.90;;;;;;;13.87;76.94;101374.62;4908708;59;1141091;-69
2022/09/01 03:20:25;;;;;;;2.97;2.30;;;;;;;13.80;76.14;101369.88;4992885;58;1139186;-66
2022/09/01 03:25:32;;;;;;;7.60;2.00;;;;;;;13.71;76.52;101374.11;5040501;58;1138988;-66
2022/09/01 03:30:46;;;;;;;25.57;4.13;;;;;;;13.73;77.05;101369.52;5100154;58;1139032;-68
2022/09/01 03:35:52;;;;;;;20.63;2.40;;;;;;;13.76;77.13;101365.75;5067643;57;1141292;-67
2022/09/01 03:41:05;;;;;;;2.43;2.00;;;;;;;13.81;76.60;101370.24;5210086;56;1141057;-70
2022/09/01 03:46:18;;;;;;;9.37;2.30;;;;;;;13.56;75.10;101371.30;5161426;56;1138951;-69
2022/09/01 03:51:23;;;;;;;9.87;2.77;;;;;;;13.22;75.11;101375.17;5184105;56;1138952;-72
2022/09/01 03:56:30;;;;;;;7.67;2.10;;;;;;;12.97;75.69;101376.13;5216678;56;1138936;-70
2022/09/01 04:01:39;;;;;;;7.53;2.57;;;;;;;12.93;76.44;101369.34;5217983;56;1139001;-66
2022/09/01 04:06:46;;;;;;;3.33;1.90;;;;;;;12.81;76.68;101376.89;5186324;56;1139073;-69
2022/09/01 04:11:52;;;;;;;6.43;1.93;;;;;;;12.63;76.34;101378.23;5209289;56;1138976;-68
2022/09/01 04:22:13;;;;;;;21.07;3.13;;;;;;;12.40;77.03;101381.67;5192292;56;1139114;-69
2022/09/01 04:27:20;;;;;;;2.30;2.00;;;;;;;12.35;77.53;101379.84;5210240;56;1141261;-65
2022/09/01 04:32:26;;;;;;;10.63;2.23;;;;;;;12.29;78.41;101376.66;5206264;56;1139082;-72
2022/09/01 04:37:40;;;;;;;1.83;1.50;;;;;;;12.28;78.68;101379.42;5192322;56;1141101;-67
2022/09/01 04:42:43;;;;;;;3.60;2.40;;;;;;;12.10;78.56;101384.22;5219393;56;1138728;-67
2022/09/01 04:47:49;;;;;;;5.30;2.33;;;;;;;12.17;79.90;101385.50;5210484;56;1138873;-67
2022/09/01 04:53:00;;;;;;;4.57;1.80;;;;;;;12.23;79.82;101386.37;5206216;56;1139212;-69
2022/09/01 04:58:06;;;;;;;6.13;2.10;;;;;;;12.18;80.11;101383.69;5209343;56;1138940;-70
2022/09/01 05:03:15;;;;;;;2.23;1.70;;;;;;;12.20;81.00;101387.94;5186436;56;1138956;-67
2022/09/01 05:08:35;;;;;;;3.40;2.27;;;;;;;12.19;81.99;101388.05;5121531;57;1139210;-68
2022/09/01 05:13:44;;;;;;;9.27;2.97;;;;;;;12.19;83.47;101385.39;5045742;57;1139134;-66
2022/09/01 05:18:55;;;;;;;4.20;3.07;;;;;;;12.18;84.36;101394.30;5149616;57;1139423;-65
2022/09/01 05:24:00;;;;;;;18.30;6.73;;;;;;;12.23;85.34;101382.87;5192598;56;1139071;-67
2022/09/01 05:29:11;;;;;;;6.47;3.20;;;;;;;12.26;85.81;101388.81;5181634;56;1138981;-66
2022/09/01 05:34:21;;;;;;;12.77;4.17;;;;;;;12.33;86.75;101387.91;5143825;56;1137217;-72
2022/09/01 05:39:25;;;;;;;9.30;3.00;;;;;;;12.50;87.58;101386.70;5160520;57;1138949;-67
2022/09/01 05:44:32;;;;;;;34.30;3.83;;;;;;;13.13;90.02;101381.64;5161595;57;1136931;-66
2022/09/01 05:49:39;;;;;;;19.73;2.53;;;;;;;13.13;90.02;101381.64;5160528;57;1138880;-69
2022/09/01 05:54:46;;;;;;;19.47;3.00;;;;;;;13.78;91.13;101385.09;5156304;57;1139101;-69
2022/09/01 05:59:53;;;;;;;11.63;1.93;;;;;;;14.29;90.37;101378.37;5161653;56;1139008;-70
2022/09/01 06:05:01;;;;;;;8.83;1.93;;;;;;;14.75;90.38;101380.02;5104630;57;1139173;-73
2022/09/01 06:10:09;;;;;;;15.47;3.20;;;;;;;15.18;89.15;101376.48;5161848;56;1137075;-67
2022/09/01 06:15:17;;;;;;;8.03;1.90;;;;;;;15.46;87.95;101376.70;5161245;57;1138979;-68
2022/09/01 06:20:25;;;;;;;9.70;1.37;;;;;;;15.78;86.62;101377.15;5160520;56;1136883;-70
2022/09/01 06:25:31;;;;;;;13.33;1.40;;;;;;;16.03;85.43;101371.90;5161194;57;1136942;-70
2022/09/01 06:30:37;;;;;;;4.07;2.07;;;;;;;16.31;85.54;101373.84;5161304;57;1139001;-68
2022/09/01 06:35:46;;;;;;;8.33;1.43;;;;;;;16.64;85.43;101382.54;5160423;57;1136882;-66
2022/09/01 06:41:03;;;;;;;10.37;1.20;;;;;;;16.95;83.94;101388.64;5120226;57;1134862;-70
2022/09/01 06:46:09;;;;;;;4.08;0.90;;;;;;;17.15;82.43;101395.67;5112789;57;1140936;-71
2022/09/01 06:51:22;;;;;;;2.25;1.07;;;;;;;17.32;81.06;101399.48;5106671;57;1138956;-67
2022/09/01 06:56:33;;;;;;;4.97;0.83;;;;;;;17.52;81.17;101402.50;5118995;57;1139079;-65
2022/09/01 07:01:39;;;;;;;3.57;0.80;;;;;;;17.73;79.12;101396.98;5118782;57;1139102;-68
2022/09/01 07:06:49;;;;;;;2.83;1.10;;;;;;;17.91;79.73;101393.44;5116190;57;1138973;-65
2022/09/01 07:11:54;;;;;;;9.17;1.07;;;;;;;18.05;78.23;101396.13;5049875;57;1138963;-70
2022/09/01 07:17:01;;;;;;;4.43;0.60;;;;;;;18.29;77.31;101396.98;5113871;57;1138976;-71
2022/09/01 07:22:07;;;;;;;11.10;1.00;;;;;;;18.36;71.67;101394.05;5110497;57;1138960;-69
2022/09/01 07:27:14;;;;;;;11.63;0.73;;;;;;;18.42;72.21;101394.80;5113532;57;1141135;-67
2022/09/01 07:32:19;;;;;;;1.90;0.50;;;;;;;18.69;72.45;101401.17;5108490;57;1141011;-68
2022/09/01 07:37:26;;;;;;;0.53;0.40;;;;;;;18.97;72.44;101404.16;5122950;57;1139008;-67
2022/09/01 07:42:33;;;;;;;2.10;0.60;;;;;;;19.12;71.23;101397.27;5161883;57;1138959;-68
2022/09/01 07:48:01;;;;;;;4.83;0.40;;;;;;;19.26;69.73;101406.61;5159682;56;1138963;-72
2022/09/01 07:53:05;;;;;;;1.02;0.72;;;;;;;19.54;68.88;101402.05;5160478;57;1139042;-71
2022/09/01 08:04:01;;;;;;;4.50;0.50;;;;;;;19.88;65.71;101391.36;5225482;54;46133;-68
2022/09/01 08:09:07;;;;;;;5.12;0.72;;;;;;;19.96;65.47;101404.86;4944076;59;1134867;-69
2022/09/01 08:14:13;;;;;;;2.20;0.55;;;;;;;20.10;64.97;101403.42;4985871;58;1139056;-65
2022/09/01 08:19:19;;;;;;;1.44;0.40;;;;;;;20.15;63.12;101405.99;5016221;57;1139206;-65
2022/09/01 08:24:29;;;;;;;1.85;0.60;;;;;;;20.32;63.24;101387.58;4874650;59;1139088;-64
2022/09/01 08:29:36;;;;;;;0.72;0.45;;;;;;;20.48;63.85;101387.34;5019486;58;1139386;-69
2022/09/01 08:34:42;;;;;;;4.60;0.70;;;;;;;20.60;59.13;101391.44;5113882;56;1139006;-69
2022/09/01 08:39:48;;;;;;;1.67;0.30;;;;;;;20.73;58.93;101383.75;5147367;56;1137162;-68
2022/09/01 08:45:13;;;;;;;0.10;0.10;;;;;;;20.94;59.64;101378.73;5173804;56;1136969;-67
2022/09/01 08:50:20;;;;;;;2.08;0.30;;;;;;;21.15;55.38;101379.62;5128634;56;1136983;-66
2022/09/01 08:55:51;;;;;;;0.40;0.25;;;;;;;21.10;55.77;101379.27;5042647;57;1137167;-67
2022/09/01 09:01:06;;;;;;;4.12;0.33;;;;;;;21.22;56.71;101384.72;5051683;57;1137020;-70
2022/09/01 09:06:23;;;;;;;7.47;0.47;;;;;;;21.16;54.81;101385.34;5021893;57;1136983;-66
2022/09/01 09:12:03;;;;;;;0.40;0.40;;;;;;;21.28;54.34;101391.26;5036185;57;1139179;-68
2022/09/01 09:17:06;;;;;;;1.20;0.53;;;;;;;21.52;54.78;101383.20;4937352;57;1138958;-68
2022/09/01 09:22:15;;;;;;;0.42;0.28;;;;;;;21.58;54.75;101390.58;4928777;57;1139036;-68
2022/09/01 09:27:29;;;;;;;2.17;0.30;;;;;;;21.78;53.49;101378.11;5086975;57;1139066;-68
2022/09/01 09:33:04;;;;;;;2.87;0.35;;;;;;;21.91;53.38;101386.50;5030150;57;1139221;-66
2022/09/01 09:38:21;;;;;;;3.17;0.98;;;;;;;21.95;51.49;101379.26;4996885;58;1139076;-67
2022/09/01 09:43:32;;;;;;;0.47;0.27;;;;;;;22.00;52.49;101372.86;4927661;58;1139073;-66
2022/09/01 09:48:37;;;;;;;2.35;1.10;;;;;;;22.20;51.71;101367.08;4763850;61;1138969;-70
2022/09/01 09:53:43;;;;;;;1.57;0.30;;;;;;;22.27;51.98;101372.13;4762755;61;1139302;-66
2022/09/01 09:58:49;;;;;;;1.85;0.40;;;;;;;22.25;50.52;101366.06;4860645;60;1138987;-70
2022/09/01 10:03:59;;;;;;;0.45;0.40;;;;;;;22.15;50.56;101370.83;4835549;60;1139292;-69
2022/09/01 10:09:09;;;;;;;12.53;1.20;;;;;;;22.03;49.49;101372.52;4937382;59;1139017;-67
2022/09/01 10:14:31;;;;;;;9.65;0.82;;;;;;;22.02;52.05;101364.61;4806354;60;1141304;-69
2022/09/01 10:19:40;;;;;;;2.47;0.50;;;;;;;22.09;51.54;101356.19;4900766;60;1139325;-67
2022/09/01 10:24:46;;;;;;;2.70;0.30;;;;;;;21.94;51.41;101365.96;4844618;61;1139340;-70
2022/09/01 10:30:08;;;;;;;57.27;3.60;;;;;;;21.83;51.25;101363.64;4797576;60;1139103;-68
2022/09/01 10:35:30;;;;;;;1.20;0.33;;;;;;;21.80;51.62;101366.67;4808767;59;1139071;-72
2022/09/01 10:41:05;;;;;;;8.43;0.80;;;;;;;21.84;51.61;101369.36;4778597;61;1137181;-70
2022/09/01 10:45:50;;;;;;;0.53;0.40;;;;;;;21.68;50.28;101367.54;4738469;61;1137020;-70
2022/09/01 10:51:19;;;;;;;2.85;0.23;;;;;;;21.75;49.24;101363.13;5025723;58;1137097;-70
2022/09/01 10:56:47;;;;;;;1.85;0.30;;;;;;;21.88;49.02;101370.67;4931006;59;1137026;-70
2022/09/01 11:01:58;;;;;;;2.65;0.40;;;;;;;22.06;47.19;101371.34;4873506;60;1139142;-69
2022/09/01 11:07:25;;;;;;;1.50;0.40;;;;;;;22.14;49.39;101367.29;4797832;60;1139138;-67
2022/09/01 11:13:17;;;;;;;1.55;0.42;;;;;;;22.20;48.42;101365.73;4981777;59;1139225;-67
2022/09/01 11:18:30;;;;;;;0.60;0.60;;;;;;;22.09;48.19;101371.84;5001562;58;1139049;-71
2022/09/01 11:23:35;;;;;;;;;;;;;;;22.10;48.12;101371.34;4948522;59;1139024;-67
2022/09/01 11:28:43;;;;;;;0.25;0.25;;;;;;;22.06;48.89;101367.30;4949120;59;976486;-69
2022/09/01 11:34:11;;;;;;;1.35;0.40;;;;;;;21.84;49.85;101366.16;4947099;59;1136919;-71
2022/09/01 11:39:33;;;;;;;1.22;0.40;;;;;;;21.55;49.28;101365.84;4719464;62;1139165;-67
2022/09/01 11:45:05;;;;;;;0.57;0.53;;;;;;;21.44;48.84;101368.38;4729889;61;1139137;-68
2022/09/01 11:50:37;;;;;;;3.25;0.47;;;;;;;21.50;49.93;101373.61;4730665;61;1139078;-70
2022/09/01 11:55:48;;;;;;;1.10;0.30;;;;;;;21.58;50.09;101368.20;4742543;61;1137250;-68
2022/09/01 12:01:02;;;;;;;3.60;0.40;;;;;;;21.64;50.59;101370.23;4766852;60;1137029;-69
2022/09/01 12:06:12;;;;;;;0.70;0.23;;;;;;;21.58;49.93;101373.08;4809119;60;1137071;-66
2022/09/01 12:11:21;;;;;;;2.17;0.40;;;;;;;21.43;50.79;101370.73;4831068;60;1136648;-65
2022/09/01 12:16:30;;;;;;;2.72;0.47;;;;;;;21.46;50.49;101372.25;5038483;58;1136941;-70
2022/09/01 12:21:42;;;;;;;2.22;0.50;;;;;;;21.52;50.81;101377.81;5145951;57;1136986;-67
2022/09/01 12:26:57;;;;;;;1.25;0.17;;;;;;;21.54;50.74;101369.04;5156978;57;1136991;-72
2022/09/01 12:32:01;;;;;;;2.20;0.40;;;;;;;21.35;50.28;101376.14;5129666;57;1134904;-66
2022/09/01 12:37:23;;;;;;;1.10;0.47;;;;;;;21.29;50.93;101373.60;5134828;57;1134903;-68
2022/09/01 12:42:32;;;;;;;1.07;0.40;;;;;;;21.21;51.38;101366.89;5047220;58;1138996;-72
2022/09/01 12:47:46;;;;;;;0.55;0.25;;;;;;;21.14;51.27;101363.64;4931519;59;1138895;-70
2022/09/01 12:53:04;;;;;;;2.27;0.53;;;;;;;20.92;51.46;101361.95;5060701;58;1139119;-67
2022/09/01 12:58:11;;;;;;;3.70;0.50;;;;;;;20.95;53.02;101360.75;5003334;58;1139047;-71
2022/09/01 13:03:20;;;;;;;0.82;0.20;;;;;;;21.03;52.96;101355.40;5052607;58;1139329;-64
2022/09/01 13:08:29;;;;;;;1.27;0.30;;;;;;;20.95;52.95;101355.37;5059414;58;1139038;-70
2022/09/01 13:13:35;;;;;;;0.62;0.40;;;;;;;21.00;51.64;101351.69;5045390;58;1139294;-71
2022/09/01 13:18:43;;;;;;;2.47;0.45;;;;;;;20.95;52.54;101346.80;5118238;57;1139021;-69
2022/09/01 13:23:49;;;;;;;0.70;0.30;;;;;;;20.94;52.06;101349.66;5110224;56;1139111;-68
2022/09/01 13:28:59;;;;;;;0.20;0.20;;;;;;;21.00;52.13;101347.16;5068373;57;1139118;-74
2022/09/01 13:34:05;;;;;;;5.90;0.30;;;;;;;20.96;52.15;101335.55;5127004;57;1139134;-70
2022/09/01 13:39:11;;;;;;;0.90;0.70;;;;;;;21.13;52.82;101326.98;5089926;57;1139149;-71
2022/09/01 13:44:17;;;;;;;1.05;0.40;;;;;;;21.28;52.07;101323.48;5118591;57;1139075;-68
2022/09/01 13:49:23;;;;;;;0.57;0.50;;;;;;;21.46;52.02;101331.88;5095593;57;1139083;-68
2022/09/01 13:54:28;;;;;;;6.08;0.62;;;;;;;21.63;50.99;101325.47;5066114;57;1139082;-70
2022/09/01 13:59:34;;;;;;;0.45;0.40;;;;;;;21.71;51.54;101324.93;5066206;56;1139021;-72
2022/09/01 14:04:41;;;;;;;0.45;0.30;;;;;;;21.83;50.71;101320.55;5160218;57;1139049;-73
2022/09/01 14:09:47;;;;;;;1.65;0.60;;;;;;;21.84;51.22;101320.38;5078455;57;1139275;-73
2022/09/01 14:14:53;;;;;;;1.32;0.42;;;;;;;21.84;51.87;101321.73;5041909;58;1139052;-69
2022/09/01 14:19:59;;;;;;;1.17;0.35;;;;;;;21.91;52.58;101318.66;4980145;58;1139265;-70
2022/09/01 14:25:05;;;;;;;3.50;0.37;;;;;;;22.07;53.04;101319.98;5075660;58;1139070;-71
2022/09/01 14:30:15;;;;;;;1.05;0.40;;;;;;;22.26;52.23;101320.08;5050378;58;1139067;-70
2022/09/01 14:35:26;;;;;;;1.45;0.53;;;;;;;22.29;52.15;101322.42;4948293;59;1139063;-70
2022/09/01 14:40:32;;;;;;;1.25;0.30;;;;;;;22.44;52.08;101315.78;5048976;58;1139040;-69
2022/09/01 14:45:38;;;;;;;5.67;0.50;;;;;;;22.50;50.55;101312.86;5143922;57;1139278;-68
2022/09/01 14:50:47;;;;;;;1.17;0.33;;;;;;;22.36;49.60;101308.56;5082908;57;1139033;-66
2022/09/01 14:55:53;;;;;;;1.55;0.47;;;;;;;22.36;51.07;101309.07;5075578;58;1139083;-71
2022/09/01 15:00:59;;;;;;;0.57;0.40;;;;;;;22.14;50.04;101316.09;5058215;58;1139021;-69
2022/09/01 15:06:05;;;;;;;1.60;0.40;;;;;;;21.89;51.57;101313.95;5057215;58;1136986;-68
2022/09/01 15:11:15;;;;;;;5.62;1.00;;;;;;;21.81;51.75;101309.95;4991019;58;1137002;-68
2022/09/01 15:16:27;;;;;;;1.02;0.37;;;;;;;21.74;52.44;101314.33;4947582;59;1137173;-68
2022/09/01 15:21:32;;;;;;;0.63;0.53;;;;;;;21.68;52.54;101315.03;5036864;58;1136982;-67
2022/09/01 15:26:45;;;;;;;7.25;0.50;;;;;;;21.34;52.88;101309.36;4946397;59;1137066;-69
2022/09/01 15:31:50;;;;;;;4.27;0.70;;;;;;;21.22;53.82;101302.66;5048587;58;1137106;-70
2022/09/01 15:36:56;;;;;;;0.80;0.40;;;;;;;21.32;54.17;101299.77;5031684;58;1137149;-72
2022/09/01 15:42:02;;;;;;;6.22;0.80;;;;;;;21.37;54.40;101299.61;5075702;57;1137024;-67
2022/09/01 15:47:07;;;;;;;4.55;1.12;;;;;;;21.41;54.37;101295.55;4990215;59;1137161;-72
2022/09/01 15:52:13;;;;;;;3.27;0.82;;;;;;;21.65;55.02;101285.75;4994278;59;1136906;-71
2022/09/01 15:57:19;;;;;;;0.37;0.28;;;;;;;21.78;54.41;101282.52;5086711;57;1136954;-67
2022/09/01 16:02:26;;;;;;;11.15;2.17;;;;;;;21.76;54.70;101276.80;5237892;56;1137280;-70
2022/09/01 16:07:31;;;;;;;9.38;2.02;;;;;;;21.67;54.54;101276.50;5155188;57;1139070;-67
2022/09/01 16:12:42;;;;;;;3.02;0.80;;;;;;;21.39;55.60;101281.41;5228521;56;1136991;-72
2022/09/01 16:17:58;;;;;;;3.90;0.98;;;;;;;21.38;56.32;101281.11;5146580;57;1134918;-71
2022/09/01 16:23:17;;;;;;;1.47;0.50;;;;;;;21.53;56.16;101285.80;5143931;57;1139037;-69
2022/09/01 16:28:36;;;;;;;1.37;1.12;;;;;;;21.48;55.43;101282.27;5060056;57;1139177;-66
2022/09/01 16:33:46;;;;;;;1.85;1.07;;;;;;;21.34;55.68;101277.58;5062107;57;1139326;-68
2022/09/01 16:38:56;;;;;;;1.05;1.00;;;;;;;21.25;55.84;101281.27;5061418;58;1139052;-72
2022/09/01 16:44:27;;;;;;;1.67;0.90;;;;;;;21.19;56.17;101281.46;5112932;57;1139036;-69
2022/09/01 16:49:43;;;;;;;5.25;1.42;;;;;;;21.11;55.89;101278.73;5149983;57;1139248;-68
2022/09/01 16:55:22;;;;;;;1.02;0.40;;;;;;;20.99;55.93;101279.58;5149899;57;1139076;-68
2022/09/01 17:00:47;;;;;;;5.15;0.78;;;;;;;20.84;55.39;101285.29;5149907;57;1139066;-70
2022/09/01 17:06:16;;;;;;;3.70;1.12;;;;;;;20.76;55.65;101281.27;5060975;57;1138995;-67
2022/09/01 17:11:31;;;;;;;8.95;2.83;;;;;;;20.71;55.62;101284.44;5174847;57;1139117;-73
2022/09/01 17:16:43;;;;;;;22.85;3.90;;;;;;;20.65;55.44;101282.41;4953421;58;1136971;-69
2022/09/01 17:22:04;;;;;;;9.07;1.07;;;;;;;20.52;55.13;101284.73;5183700;57;1138978;-69
2022/09/01 17:27:24;;;;;;;6.67;3.20;;;;;;;20.52;56.12;101288.77;5160707;56;1136884;-68
2022/09/01 17:32:48;;;;;;;5.67;3.10;;;;;;;20.56;56.31;101286.09;5045308;58;1137123;-69
2022/09/01 17:38:23;;;;;;;13.10;4.20;;;;;;;20.50;56.18;101284.06;5043141;58;1137528;-71
2022/09/01 17:43:54;;;;;;;;;;;;;;;20.42;56.08;101292.11;5086908;56;1141102;-67
2022/09/01 17:49:35;;;;;;;17.82;5.50;;;;;;;20.35;56.48;101299.10;5138573;56;976360;-72
2022/09/01 17:54:54;;;;;;;22.90;8.73;;;;;;;20.34;57.12;101304.13;5129687;56;1139001;-69
2022/09/01 18:00:07;;;;;;;40.95;13.20;;;;;;;20.29;57.23;101310.02;5161970;57;1141177;-68
2022/09/01 18:05:22;;;;;;;38.35;14.65;;;;;;;20.30;57.52;101314.89;5161680;57;1143503;-75
2022/09/01 18:10:47;;;;;;;33.45;11.28;;;;;;;20.28;57.53;101315.05;5144556;57;1143292;-69
2022/09/01 18:15:55;;;;;;;63.87;16.87;;;;;;;20.27;57.83;101317.89;5094026;57;1143302;-72
2022/09/01 18:21:24;;;;;;;37.10;8.50;;;;;;;20.17;57.75;101319.34;5149102;57;1143291;-72
2022/09/01 18:26:35;;;;;;;21.93;9.25;;;;;;;20.02;57.47;101326.33;5078977;56;1141139;-67
2022/09/01 18:32:12;;;;;;;30.73;8.13;;;;;;;19.55;57.46;101338.00;5063273;57;1141216;-69
2022/09/01 18:37:52;;;;;;;18.15;7.17;;;;;;;19.43;58.68;101337.35;5062819;58;1139090;-71
2022/09/01 18:43:22;;;;;;;35.65;7.80;;;;;;;19.38;59.31;101338.34;5094555;57;1139160;-71
2022/09/01 18:48:59;;;;;;;21.16;11.48;;;;;;;19.33;59.93;101336.12;5159030;57;1141152;-69
2022/09/01 18:54:28;;;;;;;25.05;10.25;;;;;;;19.27;60.53;101338.56;5090818;57;1143231;-73
2022/09/01 18:59:44;;;;;;;10.80;6.67;;;;;;;19.09;59.80;101356.04;5114372;57;1143148;-67
2022/09/01 19:04:54;;;;;;;14.40;6.97;;;;;;;18.90;60.00;101356.19;5111012;56;1141226;-69
2022/09/01 19:10:07;;;;;;;16.25;9.38;;;;;;;18.87;60.14;101360.50;5115685;55;1141128;-69
2022/09/01 19:15:21;;;;;;;14.43;8.50;;;;;;;18.85;60.22;101364.67;5145416;56;1141165;-73
2022/09/01 19:20:31;;;;;;;25.55;9.10;;;;;;;18.84;60.31;101367.50;5149441;56;1141093;-67
2022/09/01 19:25:39;;;;;;;13.75;4.90;;;;;;;18.79;60.61;101368.47;5130631;56;1141028;-71
2022/09/01 19:31:23;;;;;;;14.10;4.95;;;;;;;18.74;60.57;101372.09;5161072;56;1141491;-67
2022/09/01 19:36:43;;;;;;;13.20;5.47;;;;;;;18.69;60.73;101375.22;5160884;56;1141129;-69
2022/09/01 19:42:01;;;;;;;21.65;4.53;;;;;;;18.64;60.63;101376.69;5164477;56;1141019;-69
2022/09/01 19:47:24;;;;;;;25.57;3.87;;;;;;;18.48;60.40;101378.64;5161178;57;1139095;-73
2022/09/01 19:52:37;;;;;;;46.27;10.57;;;;;;;18.30;60.27;101376.40;5154917;56;1139254;-68
2022/09/01 19:58:03;;;;;;;47.48;10.82;;;;;;;18.03;60.79;101383.88;5159222;56;1141147;-71
2022/09/01 20:03:14;;;;;;;40.60;8.78;;;;;;;17.99;61.35;101382.02;5082631;57;1141402;-69
2022/09/01 20:08:45;;;;;;;31.23;6.05;;;;;;;17.92;61.32;101389.77;5196621;56;1139082;-73
2022/09/01 20:14:31;;;;;;;27.33;6.03;;;;;;;17.65;61.10;101386.18;5190248;57;1141161;-68
2022/09/01 20:19:56;;;;;;;24.35;4.53;;;;;;;17.35;61.33;101395.19;5187422;56;1141125;-70
2022/09/01 20:25:21;;;;;;;27.00;6.95;;;;;;;17.15;62.32;101392.51;5100682;57;1141069;-71
2022/09/01 20:30:38;;;;;;;11.95;4.05;;;;;;;17.07;62.88;101391.05;5170012;56;1141117;-74
2022/09/01 20:35:52;;;;;;;26.17;3.80;;;;;;;16.82;62.96;101394.22;5062396;57;1141379;-72
2022/09/01 20:41:08;;;;;;;13.60;3.50;;;;;;;16.67;63.78;101393.77;5162870;56;1141051;-67
2022/09/01 20:46:19;;;;;;;18.10;3.92;;;;;;;16.52;64.06;101393.77;5190567;56;1141115;-69
2022/09/01 20:51:47;;;;;;;8.40;2.52;;;;;;;16.45;64.58;101395.31;5175418;55;1141053;-68
2022/09/01 20:57:08;;;;;;;7.15;2.05;;;;;;;16.51;65.51;101399.59;5087570;56;1139192;-72
2022/09/01 21:02:46;;;;;;;4.67;1.62;;;;;;;16.45;65.94;101406.84;5185762;55;1139308;-68
2022/09/01 21:08:14;;;;;;;3.77;1.53;;;;;;;16.48;66.36;101401.72;5160402;56;1137237;-67
2022/09/01 21:13:39;;;;;;;22.60;10.00;;;;;;;16.52;66.64;101408.45;5175702;56;1136960;-70
2022/09/01 21:19:07;;;;;;;16.83;9.57;;;;;;;16.45;66.49;101412.66;5176435;55;1141046;-71
2022/09/01 21:24:13;;;;;;;24.77;11.37;;;;;;;16.13;66.64;101420.33;5140507;57;1141145;-72
2022/09/01 21:29:45;;;;;;;30.70;13.70;;;;;;;16.04;67.49;101419.77;5168970;56;1143209;-72
2022/09/01 21:34:52;;;;;;;17.10;8.80;;;;;;;16.06;67.97;101415.15;5020171;58;1143225;-71
2022/09/01 21:39:58;;;;;;;23.23;7.00;;;;;;;16.07;68.08;101420.00;5132932;57;1141068;-67
2022/09/01 21:45:07;;;;;;;15.43;5.67;;;;;;;16.04;68.14;101421.62;5060979;57;1141263;-69
2022/09/01 21:50:15;;;;;;;18.40;7.43;;;;;;;15.99;68.00;101425.16;5075845;58;1141198;-70
2022/09/01 21:55:23;;;;;;;19.20;6.92;;;;;;;15.90;67.77;101424.59;5078102;57;1141188;-72
2022/09/01 22:00:33;;;;;;;20.87;6.83;;;;;;;15.77;67.93;101431.47;5068806;58;1141101;-70
2022/09/01 22:05:43;;;;;;;18.00;6.20;;;;;;;15.68;68.47;101434.93;5080315;57;1141128;-71
2022/09/01 22:10:52;;;;;;;15.37;5.77;;;;;;;15.66;68.79;101429.73;5073321;58;1141198;-71
2022/09/01 22:15:59;;;;;;;9.37;4.73;;;;;;;15.67;68.98;101429.23;5078005;56;1141190;-69
2022/09/01 22:21:10;;;;;;;14.47;5.80;;;;;;;15.69;69.19;101425.95;5218810;56;1139146;-69
2022/09/01 22:26:26;;;;;;;13.60;5.40;;;;;;;15.63;69.15;101420.64;5180609;56;1141120;-71
2022/09/01 22:31:35;;;;;;;10.27;3.70;;;;;;;15.63;69.15;101420.64;5160691;56;1141397;-74
2022/09/01 22:36:45;;;;;;;8.53;3.90;;;;;;;15.62;69.44;101422.95;5160892;56;1141304;-73
2022/09/01 22:41:51;;;;;;;8.90;2.83;;;;;;;15.56;69.59;101432.81;5169121;56;1139175;-72
2022/09/01 22:46:56;;;;;;;4.93;2.17;;;;;;;15.45;69.81;101431.00;5218584;56;1139274;-67
2022/09/01 22:52:03;;;;;;;7.43;3.00;;;;;;;15.41;70.08;101423.41;5218652;56;1138948;-73
2022/09/01 22:57:09;;;;;;;9.47;3.57;;;;;;;15.18;69.41;101429.78;5203398;56;1139186;-67
2022/09/01 23:02:15;;;;;;;12.10;4.53;;;;;;;14.91;69.59;101427.56;5160744;56;1139051;-69
2022/09/01 23:07:22;;;;;;;14.90;4.07;;;;;;;14.80;70.28;101416.95;5099472;56;1141124;-67
2022/09/01 23:12:28;;;;;;;8.93;3.67;;;;;;;14.79;70.94;101420.09;5078433;57;1141118;-72
2022/09/01 23:17:36;;;;;;;7.50;3.77;;;;;;;14.77;70.82;101410.05;5164579;56;1139250;-71
2022/09/01 23:22:44;;;;;;;8.07;3.23;;;;;;;14.62;70.57;101416.61;5219881;56;1139320;-67
2022/09/01 23:27:50;;;;;;;10.80;4.27;;;;;;;14.33;70.79;101417.56;5153337;56;1137079;-72
2022/09/01 23:32:57;;;;;;;10.47;4.37;;;;;;;14.22;71.84;101410.89;5151609;56;1139084;-69
2022/09/01 23:38:03;;;;;;;11.27;3.60;;;;;;;14.25;72.21;101413.31;5142295;57;1139182;-71
2022/09/01 23:43:09;;;;;;;12.20;4.33;;;;;;;14.07;71.96;101415.11;5179267;56;1139034;-66
2022/09/01 23:48:16;;;;;;;11.23;4.80;;;;;;;13.97;72.76;101411.97;5219719;56;1139245;-68